Accueil
METAR-TAF:

METAR-TAF

Aéroports :

Aéroport de Carcassonne Salvaza

Carcassonne, France

latitude: 43-13N, longitude: 002-19E, altitude: 130 m

Observation

Le bulletin a été fait il y a 33 minutes, à 20:00 UTC
Vent 8 kt de ouest
Température 22°C
Humidité 38%
Pression 1016 hPa
Visibilité 10 km ou plus
pas de nuages en-dessous de 1500 mètres et pas de cumulonimbus.

METAR: LFMK 042000Z AUTO 28008KT CAVOK 22/07 Q1016

Heure: 22:33 (20:33 UTC)

Prévision

Le bulletin a été fait il y a 6 heures et 33 minutes, à 14:00 UTC
Prévision valable du 04 à 15 UTC au 05 à 15 UTC
Vent 17 kt de ouest/nord-ouest avec des rafales jusqu'à 27 kt
Visibilité 10 km ou plus
pas de nuages en-dessous de 1500 mètres et pas de cumulonimbus.
Evoluant progressivement
du 04 à 19 UTC au 04 à 21 UTC
Vent 10 kt de ouest/nord-ouest

TAF: LFMK 041400Z 0415/0515 30017G27KT CAVOK BECMG 0419/0421 29010KT

Observations et prévisions météorologiques de plus de 4000 aéroports (messages METAR et TAF).

Les stations disponibles sont représentées par des disques jaunes et rouges sur la carte.

Passer la souris dessus pour voir le nom de la station.

Cliquer dessus pour voir les observations et prévisions météorologiques.

Pour changer de carte: cliquez sur les boutons verts avec une croix noire pour zoomer, sur le bouton vert avec un tiret pour effectuer un zoom arrière, ou sur les flèches vertes pour les cartes adjacentes.


METAR-TAF: